Time;durP1;ratioP1;P1;durP2;ratioP2;P2;SDS_P1;SDS_P2;PMS_P1;PMS_P2;Temp;Humidity;BMP_temperature;BMP_pressure;BME280_temperature;BME280_humidity;BME280_pressure;Samples;Min_cycle;Max_cycle;Signal;HPM_P1;HPM_P2
2023/05/19 00:00:06;;;;;;;4.53;1.25;;;11.20;69.70;;;;;;5065608;28;20056;-70
2023/05/19 00:02:38;;;;;;;3.33;1.20;;;11.20;69.70;;;;;;5059663;28;20102;-61
2023/05/19 00:05:09;;;;;;;4.50;1.08;;;11.20;69.90;;;;;;5065586;28;20083;-61
2023/05/19 00:07:39;;;;;;;4.10;1.25;;;11.20;70.20;;;;;;5064407;28;20048;-72
2023/05/19 00:10:07;;;;;;;;;;;11.10;70.50;;;;;;5066246;28;20045;-72
2023/05/19 00:12:35;;;;;;;5.55;1.60;;;11.10;70.70;;;;;;5065564;28;19974;-66
2023/05/19 00:15:04;;;;;;;5.63;1.33;;;11.10;70.70;;;;;;5066560;28;20555;-66
2023/05/19 00:17:35;;;;;;;3.13;1.10;;;11.00;70.90;;;;;;5056428;28;20047;-67
2023/05/19 00:20:06;;;;;;;4.38;1.67;;;11.00;71.00;;;;;;5055639;28;20045;-66
2023/05/19 00:22:35;;;;;;;3.35;1.33;;;11.00;71.00;;;;;;5049422;28;20060;-72
2023/05/19 00:25:02;;;;;;;5.80;1.70;;;10.90;71.30;;;;;;5058864;28;20052;-72
2023/05/19 00:27:34;;;;;;;4.75;1.63;;;10.80;71.40;;;;;;5063299;28;20055;-70
2023/05/19 00:30:01;;;;;;;4.38;1.52;;;10.80;71.40;;;;;;5043934;28;20075;-71
2023/05/19 00:32:28;;;;;;;3.50;1.30;;;10.80;71.40;;;;;;5068824;28;20052;-67
2023/05/19 00:34:55;;;;;;;3.00;1.17;;;10.70;71.50;;;;;;5064093;28;20068;-67
2023/05/19 00:37:22;;;;;;;3.83;1.25;;;10.70;71.50;;;;;;5042158;28;20131;-61
2023/05/19 00:39:50;;;;;;;4.30;1.50;;;10.70;71.60;;;;;;5045721;28;20139;-61
2023/05/19 00:42:17;;;;;;;4.13;1.40;;;10.70;71.70;;;;;;5068005;28;20411;-68
2023/05/19 00:44:44;;;;;;;3.50;1.23;;;10.70;71.60;;;;;;5042070;28;20484;-68
2023/05/19 00:47:11;;;;;;;4.00;1.50;;;10.60;71.80;;;;;;5061946;28;20500;-66
2023/05/19 00:49:38;;;;;;;3.38;1.13;;;10.60;72.00;;;;;;5044817;28;20045;-64
2023/05/19 00:52:07;;;;;;;4.70;1.38;;;10.60;72.20;;;;;;5062481;28;20055;-61
2023/05/19 00:54:34;;;;;;;4.50;1.88;;;10.50;72.30;;;;;;5067421;28;20063;-61
2023/05/19 00:57:04;;;;;;;5.03;1.48;;;10.40;72.40;;;;;;5066681;28;20054;-61
2023/05/19 00:59:31;;;;;;;4.43;1.85;;;10.40;72.30;;;;;;5063953;28;20071;-61
2023/05/19 01:01:58;;;;;;;5.38;1.50;;;10.40;72.40;;;;;;5056546;28;20049;-67
2023/05/19 01:04:25;;;;;;;7.15;1.98;;;10.40;72.50;;;;;;5066058;28;20060;-68
2023/05/19 01:06:53;;;;;;;4.50;1.60;;;10.40;72.40;;;;;;5057785;28;20072;-61
2023/05/19 01:09:21;;;;;;;5.07;1.92;;;10.40;72.50;;;;;;5066297;28;20044;-61
2023/05/19 01:11:48;;;;;;;4.22;1.60;;;10.30;72.50;;;;;;5065833;28;20047;-68
2023/05/19 01:14:17;;;;;;;4.20;1.42;;;10.30;72.50;;;;;;5064295;28;20041;-67
2023/05/19 01:16:50;;;;;;;5.35;1.60;;;10.30;72.60;;;;;;5057124;28;20048;-66
2023/05/19 01:19:31;;;;;;;3.22;1.25;;;10.20;72.70;;;;;;5053430;28;20111;-67
2023/05/19 01:22:21;;;;;;;5.00;1.63;;;10.20;72.70;;;;;;5065835;28;20099;-71
2023/05/19 01:25:19;;;;;;;3.72;1.40;;;10.20;72.60;;;;;;5065468;28;20054;-71
2023/05/19 01:28:10;;;;;;;2.50;1.02;;;10.10;72.70;;;;;;5023036;28;20044;-72
2023/05/19 01:30:40;;;;;;;4.75;1.40;;;10.10;72.70;;;;;;5057686;28;20685;-72
2023/05/19 01:33:09;;;;;;;4.60;1.40;;;10.10;72.70;;;;;;5064491;28;20036;-71
2023/05/19 01:35:41;;;;;;;4.45;1.48;;;10.10;72.90;;;;;;5046851;28;20063;-68
2023/05/19 01:38:10;;;;;;;6.13;1.40;;;9.90;73.20;;;;;;5060512;28;20033;-69
2023/05/19 01:40:38;;;;;;;4.53;1.60;;;9.90;73.40;;;;;;5052334;28;20058;-63
2023/05/19 01:43:07;;;;;;;5.13;1.52;;;9.90;73.50;;;;;;5045774;28;20135;-62
2023/05/19 01:45:34;;;;;;;4.05;1.45;;;9.90;73.60;;;;;;5062616;28;20044;-68
2023/05/19 01:48:04;;;;;;;3.92;1.75;;;9.90;73.70;;;;;;5046617;28;20055;-67
2023/05/19 01:50:32;;;;;;;4.47;1.43;;;9.90;73.80;;;;;;5067675;28;20529;-74
2023/05/19 01:52:59;;;;;;;4.30;1.48;;;9.90;73.80;;;;;;5037299;28;20494;-74
2023/05/19 01:55:27;;;;;;;5.43;1.90;;;9.90;73.80;;;;;;5048615;28;20053;-68
2023/05/19 01:58:02;;;;;;;3.95;1.50;;;9.90;73.80;;;;;;5062656;28;20044;-67
2023/05/19 02:00:51;;;;;;;5.35;1.38;;;9.90;73.90;;;;;;5052934;28;20048;-61
2023/05/19 02:03:31;;;;;;;6.60;1.92;;;9.80;73.90;;;;;;5059007;28;20051;-61
2023/05/19 02:06:08;;;;;;;5.00;1.50;;;9.80;74.10;;;;;;5063235;28;20049;-62
2023/05/19 02:08:43;;;;;;;3.47;1.63;;;9.80;74.00;;;;;;5035751;28;20049;-62
2023/05/19 02:11:14;;;;;;;4.03;1.55;;;9.70;74.10;;;;;;5061613;28;20055;-73
2023/05/19 02:13:44;;;;;;;4.50;1.38;;;9.70;74.10;;;;;;5050054;28;20049;-73
2023/05/19 02:16:13;;;;;;;4.53;1.17;;;9.70;74.20;;;;;;5061002;28;20086;-71
2023/05/19 02:18:44;;;;;;;4.90;1.38;;;9.70;74.30;;;;;;5052719;28;21015;-71
2023/05/19 02:21:12;;;;;;;2.65;1.48;;;9.60;74.40;;;;;;5068128;28;20102;-73
2023/05/19 02:23:40;;;;;;;4.53;1.73;;;9.60;74.50;;;;;;5063180;28;20040;-73
2023/05/19 02:26:07;;;;;;;5.53;1.95;;;9.60;74.50;;;;;;5063043;28;20072;-70
2023/05/19 02:28:35;;;;;;;7.20;2.17;;;9.60;74.50;;;;;;5036424;28;20056;-70
2023/05/19 02:31:04;;;;;;;5.65;1.60;;;9.50;74.50;;;;;;5060896;28;20044;-70
2023/05/19 02:33:31;;;;;;;2.63;1.40;;;9.50;74.60;;;;;;5064048;28;20059;-69
2023/05/19 02:35:59;;;;;;;3.88;1.52;;;9.50;74.60;;;;;;5056292;28;20132;-72
2023/05/19 02:38:26;;;;;;;4.35;1.38;;;9.50;74.60;;;;;;5044355;28;20051;-73
2023/05/19 02:40:53;;;;;;;5.03;1.90;;;9.50;74.60;;;;;;5059119;28;20051;-68
2023/05/19 02:43:20;;;;;;;5.78;1.48;;;9.40;74.70;;;;;;5062648;28;20051;-68
2023/05/19 02:45:47;;;;;;;2.75;1.38;;;9.40;74.70;;;;;;5058970;28;20051;-68
2023/05/19 02:48:14;;;;;;;1.90;1.13;;;9.30;74.90;;;;;;5061137;28;20051;-68
2023/05/19 02:50:41;;;;;;;4.88;1.40;;;9.30;74.90;;;;;;5042285;28;20573;-62
2023/05/19 02:53:10;;;;;;;4.00;1.45;;;9.20;75.00;;;;;;5053117;28;20041;-60
2023/05/19 02:55:37;;;;;;;3.97;1.58;;;9.20;75.00;;;;;;5045970;28;20506;-70
2023/05/19 02:58:04;;;;;;;3.13;1.40;;;9.20;75.00;;;;;;5055359;28;20126;-70
2023/05/19 03:00:31;;;;;;;4.78;1.40;;;9.20;75.00;;;;;;5037778;28;20050;-72
2023/05/19 03:03:01;;;;;;;3.63;1.45;;;9.20;75.10;;;;;;5062872;28;20132;-70
2023/05/19 03:05:28;;;;;;;;;;;9.10;75.20;;;;;;5060540;28;20556;-72
2023/05/19 03:07:55;;;;;;;2.78;1.17;;;9.10;75.20;;;;;;5039357;28;19932;-73
2023/05/19 03:10:24;;;;;;;5.50;1.60;;;9.10;75.30;;;;;;5065598;28;20068;-68
2023/05/19 03:12:51;;;;;;;4.72;1.60;;;9.10;75.30;;;;;;5039326;28;20056;-67
2023/05/19 03:15:21;;;;;;;3.35;1.52;;;9.00;75.30;;;;;;5051369;28;20146;-72
2023/05/19 03:17:48;;;;;;;7.32;1.85;;;9.00;75.30;;;;;;5046539;28;20144;-68
2023/05/19 03:20:15;;;;;;;3.22;1.42;;;8.90;75.50;;;;;;5049999;28;20045;-68
2023/05/19 03:22:42;;;;;;;3.10;1.48;;;8.90;75.50;;;;;;5048405;28;20041;-68
2023/05/19 03:25:10;;;;;;;3.90;1.55;;;8.90;75.60;;;;;;5061943;28;20055;-68
2023/05/19 03:27:38;;;;;;;3.83;1.50;;;8.90;75.50;;;;;;5060256;28;20049;-73
2023/05/19 03:30:07;;;;;;;6.45;2.00;;;8.80;75.70;;;;;;5065990;28;20186;-74
2023/05/19 03:32:41;;;;;;;3.97;1.60;;;8.80;75.70;;;;;;5044725;28;20049;-73
2023/05/19 03:35:09;;;;;;;6.05;2.10;;;8.80;75.70;;;;;;5039081;28;20045;-75
2023/05/19 03:37:35;;;;;;;4.93;1.70;;;8.80;75.70;;;;;;5045130;28;20091;-70
2023/05/19 03:40:04;;;;;;;4.18;1.50;;;8.70;75.70;;;;;;5050713;28;20049;-70
2023/05/19 03:42:31;;;;;;;4.05;1.40;;;8.70;75.50;;;;;;5055586;28;20052;-67
2023/05/19 03:44:59;;;;;;;4.55;1.40;;;8.70;75.50;;;;;;5067158;28;20049;-68
2023/05/19 03:47:26;;;;;;;5.82;1.35;;;8.70;75.60;;;;;;5047696;28;20052;-71
2023/05/19 03:50:02;;;;;;;4.38;1.42;;;8.70;75.80;;;;;;5051310;28;20432;-70
2023/05/19 03:52:44;;;;;;;;;;;8.60;75.80;;;;;;5046746;28;20040;-70
2023/05/19 03:55:24;;;;;;;4.30;1.35;;;8.60;75.90;;;;;;5047848;28;20006;-61
2023/05/19 03:57:52;;;;;;;4.03;1.58;;;8.60;76.10;;;;;;5063535;28;20135;-61
2023/05/19 04:00:20;;;;;;;5.22;1.73;;;8.60;76.20;;;;;;5062592;28;20048;-62
2023/05/19 04:02:47;;;;;;;3.55;1.58;;;8.60;76.40;;;;;;5035928;28;20051;-66
2023/05/19 04:05:14;;;;;;;5.72;1.92;;;8.60;76.30;;;;;;5050373;28;20462;-66
2023/05/19 04:07:41;;;;;;;4.95;1.75;;;8.60;76.30;;;;;;5067208;28;20045;-65
2023/05/19 04:10:09;;;;;;;5.90;1.70;;;8.60;76.30;;;;;;5062453;28;20040;-65
2023/05/19 04:12:36;;;;;;;5.40;1.75;;;8.60;76.50;;;;;;5060742;28;20529;-74
2023/05/19 04:15:04;;;;;;;5.13;1.92;;;8.60;76.60;;;;;;5069048;28;20558;-73
2023/05/19 04:17:32;;;;;;;4.53;1.40;;;8.60;76.70;;;;;;5063179;28;20086;-70
2023/05/19 04:20:00;;;;;;;4.20;1.55;;;8.60;76.70;;;;;;5042106;28;20053;-71
2023/05/19 04:22:26;;;;;;;5.65;1.60;;;8.70;76.70;;;;;;5046052;28;20129;-60
2023/05/19 04:24:53;;;;;;;4.22;1.75;;;8.70;76.50;;;;;;5043231;28;20055;-62
2023/05/19 04:27:21;;;;;;;6.40;1.73;;;8.70;76.50;;;;;;5046663;28;20064;-61
2023/05/19 04:29:48;;;;;;;5.70;1.60;;;8.70;76.50;;;;;;5066870;28;20036;-62
2023/05/19 04:32:16;;;;;;;4.35;1.50;;;8.70;76.60;;;;;;5059219;28;20056;-67
2023/05/19 04:34:45;;;;;;;4.47;1.58;;;8.70;76.60;;;;;;5048311;28;20055;-68
2023/05/19 04:37:16;;;;;;;6.63;1.60;;;8.70;76.60;;;;;;5052667;28;20102;-74
2023/05/19 04:39:44;;;;;;;4.50;1.70;;;8.70;76.80;;;;;;5042172;28;20102;-73
2023/05/19 04:42:12;;;;;;;6.65;1.67;;;8.60;76.90;;;;;;5043927;28;20058;-76
2023/05/19 04:44:39;;;;;;;5.15;1.60;;;8.70;76.90;;;;;;5048035;28;20130;-74
2023/05/19 04:47:07;;;;;;;4.53;1.70;;;8.60;76.90;;;;;;5042114;28;20076;-67
2023/05/19 04:49:37;;;;;;;3.33;1.65;;;8.60;77.00;;;;;;5066430;28;20056;-67
2023/05/19 04:52:09;;;;;;;5.72;2.00;;;8.70;77.00;;;;;;5047991;28;20488;-67
2023/05/19 04:54:37;;;;;;;6.57;2.17;;;8.70;76.90;;;;;;5035857;28;20098;-67
2023/05/19 04:57:05;;;;;;;4.47;1.90;;;8.70;76.90;;;;;;5048326;28;20386;-68
2023/05/19 04:59:35;;;;;;;4.78;2.00;;;8.80;77.00;;;;;;5037128;28;20045;-69
2023/05/19 05:02:03;;;;;;;4.00;1.77;;;8.80;77.30;;;;;;5050673;28;20040;-61
2023/05/19 05:04:31;;;;;;;7.68;1.83;;;8.80;77.30;;;;;;5048500;28;20134;-61
2023/05/19 05:06:58;;;;;;;5.45;1.80;;;8.90;77.10;;;;;;5046341;28;20056;-65
2023/05/19 05:09:27;;;;;;;3.88;1.95;;;8.90;76.90;;;;;;5063484;28;20052;-66
2023/05/19 05:11:55;;;;;;;3.50;1.73;;;9.00;77.00;;;;;;5047533;28;20477;-72
2023/05/19 05:14:22;;;;;;;4.55;1.90;;;9.00;77.00;;;;;;5063826;28;20143;-72
2023/05/19 05:16:50;;;;;;;5.40;1.95;;;9.10;76.80;;;;;;5045861;28;20467;-70
2023/05/19 05:19:22;;;;;;;5.72;1.70;;;9.10;76.80;;;;;;5050275;28;20048;-71
2023/05/19 05:21:50;;;;;;;5.70;1.73;;;9.20;76.50;;;;;;5063506;28;20083;-73
2023/05/19 05:24:17;;;;;;;4.93;1.67;;;9.30;76.30;;;;;;5062731;28;20049;-74
2023/05/19 05:26:51;;;;;;;3.92;1.30;;;9.40;76.40;;;;;;5037292;28;20110;-64
2023/05/19 05:29:19;;;;;;;5.03;1.50;;;9.40;76.00;;;;;;5040623;28;20055;-66
2023/05/19 05:31:46;;;;;;;5.20;1.55;;;9.40;75.80;;;;;;5041451;28;20502;-69
2023/05/19 05:34:13;;;;;;;5.50;1.70;;;9.50;75.70;;;;;;5066454;28;20495;-71
2023/05/19 05:36:40;;;;;;;3.72;1.60;;;9.60;75.50;;;;;;5064671;28;20056;-61
2023/05/19 05:39:08;;;;;;;5.25;1.77;;;9.60;75.80;;;;;;5036584;28;20096;-62
2023/05/19 05:41:37;;;;;;;4.25;1.52;;;9.60;75.80;;;;;;5045385;28;20052;-62
2023/05/19 05:44:11;;;;;;;5.75;1.88;;;9.70;75.80;;;;;;5046133;28;20048;-63
2023/05/19 05:46:41;;;;;;;4.82;1.63;;;9.70;75.90;;;;;;5047951;28;20044;-66
2023/05/19 05:49:11;;;;;;;4.43;1.63;;;9.70;75.70;;;;;;5050287;28;20064;-66
2023/05/19 05:51:39;;;;;;;5.28;1.80;;;9.80;75.00;;;;;;5045033;28;20063;-69
2023/05/19 05:54:11;;;;;;;5.63;1.90;;;9.80;75.40;;;;;;5049659;28;20135;-70
2023/05/19 05:56:43;;;;;;;3.90;1.80;;;9.80;75.60;;;;;;5041046;28;20056;-60
2023/05/19 05:59:12;;;;;;;4.40;1.92;;;9.90;75.30;;;;;;5042773;28;20045;-61
2023/05/19 06:01:40;;;;;;;7.07;2.08;;;9.90;75.30;;;;;;5047169;28;20059;-67
2023/05/19 06:04:09;;;;;;;4.60;1.42;;;10.00;75.30;;;;;;5043392;28;20542;-68
2023/05/19 06:06:36;;;;;;;7.65;1.67;;;10.10;75.10;;;;;;5038379;28;20049;-67
2023/05/19 06:09:04;;;;;;;5.25;1.80;;;10.10;74.80;;;;;;5057408;28;20539;-68
2023/05/19 06:11:32;;;;;;;4.53;1.80;;;10.20;74.60;;;;;;5041264;28;20072;-67
2023/05/19 06:14:00;;;;;;;6.30;1.77;;;10.30;74.30;;;;;;5040275;28;20045;-67
2023/05/19 06:17:04;;;;;;;5.90;2.00;;;10.40;74.30;;;;;;4978985;28;20064;-75
2023/05/19 06:19:32;;;;;;;6.00;1.77;;;10.40;73.90;;;;;;5031480;28;20059;-75
2023/05/19 06:21:59;;;;;;;5.00;1.80;;;10.40;73.30;;;;;;5058680;28;20049;-69
2023/05/19 06:24:26;;;;;;;3.92;1.50;;;10.50;74.00;;;;;;5060866;28;20500;-70
2023/05/19 06:26:53;;;;;;;3.83;1.50;;;10.50;74.10;;;;;;5050262;28;20041;-69
2023/05/19 06:29:20;;;;;;;4.85;1.90;;;10.60;74.00;;;;;;5041912;28;20056;-69
2023/05/19 06:31:47;;;;;;;4.00;1.67;;;10.70;74.00;;;;;;5039803;28;20080;-72
2023/05/19 06:34:19;;;;;;;5.68;1.77;;;10.70;74.10;;;;;;5045905;28;20040;-70
2023/05/19 06:36:47;;;;;;;7.05;1.85;;;10.90;74.10;;;;;;5043825;28;20506;-73
2023/05/19 06:39:15;;;;;;;4.03;1.80;;;10.90;74.30;;;;;;5046342;28;20052;-74
2023/05/19 06:41:42;;;;;;;6.10;1.90;;;11.00;74.20;;;;;;5048740;28;20072;-67
2023/05/19 06:44:09;;;;;;;6.10;1.60;;;11.10;73.80;;;;;;5040864;28;20061;-66
2023/05/19 06:46:35;;;;;;;6.55;2.10;;;11.10;73.70;;;;;;5060804;28;20053;-70
2023/05/19 06:49:13;;;;;;;6.70;2.03;;;11.20;73.50;;;;;;5044716;28;20455;-69
2023/05/19 06:51:46;;;;;;;5.20;1.70;;;11.30;73.20;;;;;;5055194;28;20056;-70
2023/05/19 06:54:14;;;;;;;5.50;1.90;;;11.40;72.60;;;;;;5041896;28;20047;-69
2023/05/19 06:56:42;;;;;;;4.28;1.80;;;11.50;72.10;;;;;;5050782;28;20037;-71
2023/05/19 06:59:09;;;;;;;6.32;2.05;;;11.60;71.80;;;;;;5049437;28;20131;-70
2023/05/19 07:01:37;;;;;;;5.00;1.65;;;11.70;71.90;;;;;;5044523;28;20068;-72
2023/05/19 07:04:05;;;;;;;6.05;1.75;;;11.70;71.60;;;;;;5048526;28;20077;-71
2023/05/19 07:06:32;;;;;;;5.15;1.52;;;11.90;71.50;;;;;;5050615;28;20045;-66
2023/05/19 07:09:01;;;;;;;4.57;1.67;;;12.00;71.20;;;;;;5047940;28;20936;-66
2023/05/19 07:11:28;;;;;;;4.60;1.83;;;12.10;71.10;;;;;;5046300;28;20515;-67
2023/05/19 07:13:56;;;;;;;6.53;1.90;;;12.10;71.20;;;;;;5046969;28;20700;-68
2023/05/19 07:16:27;;;;;;;5.53;1.95;;;12.20;70.70;;;;;;5067376;28;20045;-71
2023/05/19 07:18:55;;;;;;;5.70;2.08;;;12.30;70.50;;;;;;5046087;28;20056;-71
2023/05/19 07:21:22;;;;;;;4.78;1.77;;;12.50;70.60;;;;;;5048775;28;20094;-73
2023/05/19 07:23:50;;;;;;;4.32;1.77;;;12.60;70.00;;;;;;5047181;28;20044;-73
2023/05/19 07:26:18;;;;;;;6.40;2.13;;;12.60;69.50;;;;;;5044072;28;20044;-68
2023/05/19 07:28:45;;;;;;;5.68;1.70;;;12.70;69.00;;;;;;5060445;28;20051;-66
2023/05/19 07:31:12;;;;;;;7.68;1.77;;;12.70;68.70;;;;;;5069102;28;20044;-72
2023/05/19 07:33:39;;;;;;;6.63;2.33;;;12.80;68.70;;;;;;5056815;28;20048;-72
2023/05/19 07:36:06;;;;;;;6.50;1.60;;;12.90;68.10;;;;;;5061094;28;20070;-71
2023/05/19 07:38:36;;;;;;;5.60;1.90;;;13.20;66.90;;;;;;5064615;28;20148;-69
2023/05/19 07:41:03;;;;;;;6.18;1.48;;;13.30;66.70;;;;;;5064680;28;20048;-68
2023/05/19 07:43:31;;;;;;;5.90;1.90;;;13.50;66.70;;;;;;5069598;28;20057;-66
2023/05/19 07:45:58;;;;;;;3.45;1.35;;;13.60;66.10;;;;;;5063706;28;20041;-65
2023/05/19 07:48:25;;;;;;;7.35;1.75;;;13.70;65.80;;;;;;5067326;28;20424;-67
2023/05/19 07:50:53;;;;;;;7.50;1.70;;;13.70;66.10;;;;;;5053773;28;20140;-66
2023/05/19 07:53:21;;;;;;;5.05;1.75;;;13.80;65.40;;;;;;5057355;28;20051;-67
2023/05/19 07:55:48;;;;;;;5.90;1.67;;;14.00;64.90;;;;;;5068842;28;20053;-62
2023/05/19 07:58:16;;;;;;;6.28;2.00;;;14.10;64.70;;;;;;5066354;28;20484;-63
2023/05/19 08:00:44;;;;;;;4.25;1.52;;;14.40;64.10;;;;;;5062117;28;20047;-62
2023/05/19 08:03:11;;;;;;;5.75;1.80;;;14.70;63.80;;;;;;5062746;28;20132;-62
2023/05/19 08:05:39;;;;;;;6.22;1.85;;;14.90;63.00;;;;;;5061365;28;20056;-68
2023/05/19 08:08:06;;;;;;;5.15;1.50;;;15.10;62.10;;;;;;5066474;28;20045;-67
2023/05/19 08:10:33;;;;;;;5.93;1.55;;;15.40;60.80;;;;;;5063995;28;20056;-60
2023/05/19 08:13:00;;;;;;;4.70;1.55;;;15.50;60.60;;;;;;5066082;28;20041;-60
2023/05/19 08:15:27;;;;;;;5.53;1.52;;;15.60;60.00;;;;;;5064387;28;20060;-61
2023/05/19 08:17:55;;;;;;;5.63;1.45;;;15.70;59.70;;;;;;5065239;28;20051;-61
2023/05/19 08:20:23;;;;;;;5.90;2.00;;;15.90;58.30;;;;;;5048237;28;20045;-66
2023/05/19 08:22:50;;;;;;;5.18;1.48;;;16.00;58.40;;;;;;5066263;28;20132;-66
2023/05/19 08:25:18;;;;;;;6.05;1.48;;;16.10;58.40;;;;;;5062955;28;20048;-67
2023/05/19 08:27:45;;;;;;;5.68;1.65;;;16.20;58.70;;;;;;5068346;28;20080;-68
2023/05/19 08:30:13;;;;;;;4.30;1.70;;;16.30;57.80;;;;;;5065665;28;20075;-67
2023/05/19 08:32:39;;;;;;;4.38;1.40;;;16.40;57.40;;;;;;5062093;28;20048;-67
2023/05/19 08:35:09;;;;;;;5.55;1.50;;;16.50;57.40;;;;;;5070349;28;20067;-68
2023/05/19 08:37:37;;;;;;;6.18;1.50;;;16.60;56.80;;;;;;5063278;28;20056;-67
2023/05/19 08:40:05;;;;;;;6.05;1.88;;;16.70;56.40;;;;;;5068572;28;20055;-67
2023/05/19 08:42:32;;;;;;;6.53;1.60;;;16.80;55.10;;;;;;5060929;28;20047;-67
2023/05/19 08:44:59;;;;;;;6.22;1.25;;;16.90;56.10;;;;;;5061794;28;20041;-67
2023/05/19 08:47:27;;;;;;;4.03;1.35;;;17.10;55.80;;;;;;5061858;28;20049;-67
2023/05/19 08:50:02;;;;;;;4.18;1.38;;;17.10;55.70;;;;;;5067922;28;20106;-68
2023/05/19 08:52:41;;;;;;;4.93;1.40;;;17.20;55.20;;;;;;5058812;28;20048;-68
2023/05/19 08:55:12;;;;;;;4.68;1.33;;;17.30;55.30;;;;;;5056711;28;20055;-68
2023/05/19 08:57:40;;;;;;;5.85;1.50;;;17.40;54.60;;;;;;5066802;28;20060;-67
2023/05/19 09:00:10;;;;;;;4.15;1.25;;;17.50;54.20;;;;;;5063948;28;20055;-68
2023/05/19 09:02:37;;;;;;;;;;;17.70;53.70;;;;;;5063792;28;20488;-67
2023/05/19 09:05:05;;;;;;;3.90;1.40;;;17.80;52.90;;;;;;5062377;28;20381;-67
2023/05/19 09:07:37;;;;;;;5.63;1.23;;;17.90;52.70;;;;;;5066599;28;20064;-69
2023/05/19 09:10:05;;;;;;;4.47;1.30;;;18.00;52.90;;;;;;5060105;28;20184;-69
2023/05/19 09:12:33;;;;;;;5.22;1.60;;;18.20;52.50;;;;;;5059185;28;20052;-67
2023/05/19 09:15:01;;;;;;;4.00;1.40;;;18.20;52.50;;;;;;5064107;28;20053;-68
2023/05/19 09:17:28;;;;;;;4.95;1.88;;;18.20;52.70;;;;;;5068742;28;20048;-70
2023/05/19 09:19:55;;;;;;;4.78;1.30;;;18.40;51.90;;;;;;5065039;28;20498;-72
2023/05/19 09:22:22;;;;;;;6.68;1.65;;;18.60;51.00;;;;;;5061474;28;20049;-73
2023/05/19 09:24:50;;;;;;;4.53;1.40;;;18.70;51.70;;;;;;5064123;28;20507;-75
2023/05/19 09:27:22;;;;;;;5.78;1.25;;;18.80;50.10;;;;;;5064004;28;20049;-73
2023/05/19 09:29:49;;;;;;;4.50;1.67;;;18.80;51.10;;;;;;5058307;28;20048;-74
2023/05/19 09:32:24;;;;;;;4.80;1.50;;;18.90;51.20;;;;;;5046661;28;20048;-71
2023/05/19 09:34:52;;;;;;;5.72;1.92;;;19.10;50.90;;;;;;5055626;28;20055;-71
2023/05/19 09:37:23;;;;;;;5.13;2.10;;;19.10;49.90;;;;;;5061185;28;20056;-70
2023/05/19 09:39:52;;;;;;;7.32;2.30;;;19.10;50.10;;;;;;5066374;28;20125;-71
2023/05/19 09:42:25;;;;;;;5.57;2.03;;;19.20;49.40;;;;;;5063435;28;20048;-72
2023/05/19 09:45:00;;;;;;;5.43;1.80;;;19.30;48.80;;;;;;5060282;28;20040;-74
2023/05/19 09:47:27;;;;;;;6.18;1.63;;;19.20;49.30;;;;;;5057912;28;20040;-70
2023/05/19 09:49:55;;;;;;;5.05;1.48;;;19.20;49.70;;;;;;5060557;28;20040;-70
2023/05/19 09:52:22;;;;;;;4.07;1.50;;;19.30;50.30;;;;;;5066557;28;20142;-71
2023/05/19 09:54:51;;;;;;;5.53;2.13;;;19.40;49.80;;;;;;5058015;28;20045;-71
2023/05/19 09:57:18;;;;;;;3.67;1.63;;;19.40;49.90;;;;;;5035962;28;20040;-73
2023/05/19 09:59:45;;;;;;;7.55;1.38;;;19.50;49.50;;;;;;5058243;28;20480;-72
2023/05/19 10:02:17;;;;;;;5.65;1.52;;;19.60;49.50;;;;;;5060572;28;20128;-67
2023/05/19 10:04:46;;;;;;;3.88;1.42;;;19.60;49.70;;;;;;5045427;28;20045;-68
2023/05/19 10:07:15;;;;;;;3.50;1.30;;;19.70;50.20;;;;;;5067359;28;20063;-68
2023/05/19 10:09:43;;;;;;;4.55;1.70;;;19.70;49.00;;;;;;5059065;28;20507;-68
2023/05/19 10:12:13;;;;;;;4.82;1.45;;;19.90;48.70;;;;;;5061760;28;20052;-75
2023/05/19 10:14:41;;;;;;;4.07;1.55;;;20.00;48.50;;;;;;5058650;28;20052;-73
2023/05/19 10:17:09;;;;;;;5.75;1.45;;;20.10;47.60;;;;;;5057054;28;20071;-68
2023/05/19 10:19:37;;;;;;;3.28;1.30;;;20.10;47.90;;;;;;5065562;28;20048;-69
2023/05/19 10:22:04;;;;;;;3.97;1.38;;;20.10;48.10;;;;;;5062323;28;20074;-68
2023/05/19 10:24:31;;;;;;;3.90;1.50;;;20.00;47.50;;;;;;5062474;28;20158;-69
2023/05/19 10:27:03;;;;;;;4.85;1.55;;;20.00;47.00;;;;;;5063297;28;20048;-62
2023/05/19 10:29:36;;;;;;;5.22;1.75;;;19.90;47.10;;;;;;5062699;28;20052;-63
2023/05/19 10:32:10;;;;;;;6.30;1.40;;;19.90;47.10;;;;;;5061759;28;20507;-59
2023/05/19 10:34:58;;;;;;;4.43;1.15;;;20.00;47.10;;;;;;5060516;28;20040;-61
2023/05/19 10:37:33;;;;;;;4.07;1.30;;;20.00;47.10;;;;;;5058486;28;20046;-61
2023/05/19 10:40:06;;;;;;;5.75;1.55;;;19.90;47.30;;;;;;5062368;28;20511;-61
2023/05/19 10:42:40;;;;;;;6.45;1.75;;;19.90;47.60;;;;;;5055613;28;20101;-61
2023/05/19 10:45:16;;;;;;;4.93;1.40;;;19.80;47.20;;;;;;5061262;28;20122;-61
2023/05/19 10:47:44;;;;;;;3.40;1.17;;;19.90;47.20;;;;;;5063729;28;20483;-61
2023/05/19 10:50:11;;;;;;;2.67;1.02;;;19.90;46.70;;;;;;5064841;28;20041;-70
2023/05/19 10:52:39;;;;;;;5.57;1.27;;;19.80;46.10;;;;;;5064515;28;20041;-69
2023/05/19 10:55:08;;;;;;;3.90;1.30;;;19.80;46.00;;;;;;5067114;28;20439;-68
2023/05/19 10:57:35;;;;;;;6.30;1.65;;;19.80;45.80;;;;;;5052254;28;20056;-68
2023/05/19 11:00:10;;;;;;;2.78;1.10;;;19.80;46.00;;;;;;5055946;28;20064;-68
2023/05/19 11:02:40;;;;;;;2.75;1.25;;;19.90;45.50;;;;;;5060763;28;20123;-68
2023/05/19 11:05:09;;;;;;;4.90;1.60;;;20.00;45.30;;;;;;5060732;28;20056;-68
2023/05/19 11:07:36;;;;;;;3.10;1.27;;;20.10;45.10;;;;;;5063317;28;20063;-67
2023/05/19 11:10:06;;;;;;;2.55;1.27;;;20.20;45.40;;;;;;5063871;28;20380;-67
2023/05/19 11:12:41;;;;;;;3.42;1.13;;;20.40;45.00;;;;;;5059074;28;20052;-67
2023/05/19 11:15:11;;;;;;;3.92;1.50;;;20.60;45.30;;;;;;5061561;28;21829;-67
2023/05/19 11:17:41;;;;;;;4.43;1.40;;;20.70;45.50;;;;;;5065802;28;20045;-68
2023/05/19 11:20:19;;;;;;;3.13;1.27;;;20.90;45.50;;;;;;5067602;28;20094;-68
2023/05/19 11:23:01;;;;;;;3.75;1.23;;;21.00;44.50;;;;;;5062396;28;20036;-68
2023/05/19 11:25:42;;;;;;;2.80;1.33;;;21.00;44.50;;;;;;5053490;28;20080;-68
2023/05/19 11:28:11;;;;;;;4.32;1.48;;;21.10;44.30;;;;;;5062560;28;20185;-69
2023/05/19 11:30:41;;;;;;;2.45;1.00;;;21.30;43.50;;;;;;5060637;28;20068;-69
2023/05/19 11:33:09;;;;;;;3.70;1.40;;;21.40;43.40;;;;;;5064478;28;20052;-68
2023/05/19 11:35:36;;;;;;;4.00;1.42;;;21.50;43.20;;;;;;5068345;28;20048;-69
2023/05/19 11:38:03;;;;;;;3.15;1.10;;;21.30;43.20;;;;;;5065476;28;20071;-69
2023/05/19 11:40:30;;;;;;;4.25;1.48;;;21.20;42.70;;;;;;5056481;28;20051;-69
2023/05/19 11:43:00;;;;;;;2.58;1.02;;;20.90;42.90;;;;;;5061651;28;20041;-68
2023/05/19 11:45:27;;;;;;;;;;;20.90;43.50;;;;;;5065203;28;20159;-69
2023/05/19 11:47:56;;;;;;;5.22;1.50;;;21.10;44.50;;;;;;5063304;28;19956;-69
2023/05/19 11:50:25;;;;;;;4.55;1.55;;;21.30;43.70;;;;;;5067737;28;20051;-68
2023/05/19 11:52:52;;;;;;;4.05;1.20;;;21.40;43.00;;;;;;5065066;28;20051;-69
2023/05/19 11:55:21;;;;;;;5.68;1.42;;;21.40;43.50;;;;;;5045980;28;20053;-62
2023/05/19 11:57:57;;;;;;;5.27;1.27;;;21.40;42.70;;;;;;5037830;28;20077;-64
2023/05/19 12:00:24;;;;;;;3.45;1.17;;;21.60;42.90;;;;;;5063824;28;20483;-71
2023/05/19 12:02:51;;;;;;;5.60;1.70;;;21.70;42.50;;;;;;5064480;28;20499;-72
2023/05/19 12:05:19;;;;;;;3.47;1.33;;;21.70;43.20;;;;;;5066940;28;20040;-63
2023/05/19 12:07:50;;;;;;;3.92;1.40;;;21.70;42.60;;;;;;5057879;28;20073;-64
2023/05/19 12:10:18;;;;;;;3.53;0.90;;;21.80;42.30;;;;;;5062506;28;20151;-70
2023/05/19 12:12:46;;;;;;;3.05;1.30;;;22.00;42.20;;;;;;5063132;28;20120;-70
2023/05/19 12:15:13;;;;;;;4.05;1.48;;;22.10;41.80;;;;;;5063770;28;20508;-68
2023/05/19 12:17:40;;;;;;;3.88;1.50;;;21.90;40.90;;;;;;5067817;28;20048;-68
2023/05/19 12:20:08;;;;;;;3.35;1.35;;;21.90;41.50;;;;;;5065773;28;20072;-68
2023/05/19 12:22:35;;;;;;;2.85;1.40;;;21.70;40.50;;;;;;5058158;28;21439;-67
2023/05/19 12:25:04;;;;;;;3.60;1.52;;;21.60;40.80;;;;;;5062915;28;20048;-67
2023/05/19 12:27:35;;;;;;;;;;;21.50;41.90;;;;;;5067858;28;20052;-67
2023/05/19 12:30:04;;;;;;;3.38;1.27;;;21.40;41.30;;;;;;5067620;28;19924;-66
2023/05/19 12:32:33;;;;;;;;;;;21.30;42.20;;;;;;5063585;28;20049;-67
2023/05/19 12:35:03;;;;;;;3.95;1.48;;;21.20;41.70;;;;;;5062734;28;19961;-67
2023/05/19 12:37:30;;;;;;;3.55;1.30;;;21.20;42.20;;;;;;5062920;28;20055;-73
2023/05/19 12:39:57;;;;;;;3.03;1.30;;;21.10;42.30;;;;;;5064481;28;20040;-73
2023/05/19 12:42:29;;;;;;;2.85;1.20;;;21.10;42.30;;;;;;5067582;28;20043;-70
2023/05/19 12:44:58;;;;;;;5.93;1.65;;;21.10;42.20;;;;;;5063880;28;20045;-70
2023/05/19 12:47:31;;;;;;;3.83;1.60;;;21.10;42.60;;;;;;5063296;28;20050;-70
2023/05/19 12:50:02;;;;;;;5.00;1.75;;;21.10;42.60;;;;;;5066436;28;20048;-70
2023/05/19 12:52:31;;;;;;;3.47;1.40;;;21.10;42.00;;;;;;5062909;28;20072;-63
2023/05/19 12:55:00;;;;;;;3.83;1.50;;;21.10;41.90;;;;;;5058831;28;20132;-62
2023/05/19 12:57:30;;;;;;;3.47;1.50;;;21.10;42.20;;;;;;5064428;28;20061;-75
2023/05/19 13:00:00;;;;;;;2.72;1.25;;;21.00;42.20;;;;;;5062927;28;20040;-74
2023/05/19 13:02:27;;;;;;;3.97;1.40;;;21.00;42.30;;;;;;5062597;28;20064;-73